createdAt,value
2022-10-01T00:02:17.329Z,81.25
2022-10-01T00:04:43.989Z,81.66
2022-10-01T00:07:15.197Z,81.57
2022-10-01T00:09:42.031Z,81.61
2022-10-01T00:12:08.640Z,81.90
2022-10-01T00:14:39.235Z,81.80
2022-10-01T00:17:05.968Z,81.50
2022-10-01T00:19:32.594Z,81.33
2022-10-01T00:21:59.256Z,81.50
2022-10-01T00:24:25.937Z,81.11
2022-10-01T00:26:53.235Z,81.13
2022-10-01T00:29:19.834Z,81.13
2022-10-01T00:31:46.541Z,81.09
2022-10-01T00:34:15.535Z,81.26
2022-10-01T00:36:42.367Z,82.35
2022-10-01T00:39:11.205Z,82.25
2022-10-01T00:41:38.557Z,82.43
2022-10-01T00:44:28.962Z,82.55
2022-10-01T00:46:58.734Z,82.74
2022-10-01T00:49:27.798Z,82.33
2022-10-01T00:51:58.408Z,82.60
2022-10-01T00:54:42.731Z,82.45
2022-10-01T00:57:09.367Z,82.26
2022-10-01T00:59:36.514Z,81.88
2022-10-01T01:02:03.978Z,82.05
2022-10-01T01:04:30.819Z,81.98
2022-10-01T01:06:58.868Z,81.85
2022-10-01T01:09:31.829Z,81.60
2022-10-01T01:12:13.726Z,81.68
2022-10-01T01:14:55.198Z,81.32
2022-10-01T01:17:30.045Z,81.28
2022-10-01T01:20:05.845Z,81.39
2022-10-01T01:22:35.728Z,81.35
2022-10-01T01:25:18.639Z,81.74
2022-10-01T01:28:04.021Z,82.36
2022-10-01T01:30:31.785Z,81.98
2022-10-01T01:33:06.029Z,82.28
2022-10-01T01:35:37.432Z,82.41
2022-10-01T01:38:11.418Z,82.64
2022-10-01T01:40:39.359Z,82.71
2022-10-01T01:43:10.309Z,82.72
2022-10-01T01:45:40.065Z,82.77
2022-10-01T01:48:09.970Z,82.70
2022-10-01T01:50:42.637Z,82.86
2022-10-01T01:53:09.412Z,82.63
2022-10-01T01:55:36.866Z,82.62
2022-10-01T01:58:03.733Z,82.34
2022-10-01T02:00:30.363Z,82.63
2022-10-01T02:02:57.585Z,82.58
2022-10-01T02:05:27.342Z,82.51
2022-10-01T02:08:23.182Z,82.11
2022-10-01T02:11:03.348Z,82.16
2022-10-01T02:13:42.029Z,81.99
2022-10-01T02:16:27.683Z,81.82
2022-10-01T02:19:02.416Z,81.58
2022-10-01T02:21:35.560Z,81.37
2022-10-01T02:24:05.034Z,81.24
2022-10-01T02:26:32.681Z,80.96
2022-10-01T02:29:04.714Z,80.85
2022-10-01T02:31:32.581Z,80.48
2022-10-01T02:34:01.448Z,80.35
2022-10-01T02:36:30.057Z,80.56
2022-10-01T02:38:57.058Z,80.25
2022-10-01T02:41:27.851Z,80.23
2022-10-01T02:44:08.010Z,80.27
2022-10-01T02:46:40.107Z,80.31
2022-10-01T02:49:06.786Z,80.43
2022-10-01T02:51:52.161Z,80.78
2022-10-01T02:54:33.475Z,81.18
2022-10-01T02:57:18.744Z,81.15
2022-10-01T02:59:45.504Z,81.13
2022-10-01T03:02:12.230Z,81.18
2022-10-01T03:04:39.282Z,80.97
2022-10-01T03:07:05.920Z,80.74
2022-10-01T03:09:34.591Z,80.46
2022-10-01T03:12:01.930Z,80.10
2022-10-01T03:14:28.706Z,80.04
2022-10-01T03:16:55.437Z,79.90
2022-10-01T03:19:22.199Z,79.74
2022-10-01T03:21:48.858Z,79.49
2022-10-01T03:24:15.478Z,79.48
2022-10-01T03:26:42.234Z,79.37
2022-10-01T03:29:09.755Z,79.11
2022-10-01T03:31:38.313Z,78.99
2022-10-01T03:34:05.154Z,78.63
2022-10-01T03:36:31.799Z,78.60
2022-10-01T03:38:58.389Z,78.17
2022-10-01T03:41:25.048Z,77.85
2022-10-01T03:43:51.710Z,77.44
2022-10-01T03:46:18.296Z,77.27
2022-10-01T03:48:44.895Z,77.65
2022-10-01T03:51:11.547Z,77.57
2022-10-01T03:53:38.685Z,77.57
2022-10-01T03:56:05.449Z,77.13
2022-10-01T03:58:32.201Z,77.19
2022-10-01T04:01:00.638Z,77.19
2022-10-01T04:03:27.222Z,77.26
2022-10-01T04:05:53.893Z,77.17
2022-10-01T04:08:24.267Z,77.33
2022-10-01T04:10:51.306Z,77.37
2022-10-01T04:13:18.192Z,77.61
2022-10-01T04:15:44.997Z,77.66
2022-10-01T04:18:11.712Z,77.78
2022-10-01T04:20:38.733Z,77.93
2022-10-01T04:23:05.741Z,77.77
2022-10-01T04:25:32.440Z,77.66
2022-10-01T04:28:02.122Z,77.65
2022-10-01T04:30:31.964Z,77.54
2022-10-01T04:32:58.662Z,77.18
2022-10-01T04:35:26.717Z,77.19
2022-10-01T04:38:07.229Z,77.09
2022-10-01T04:40:35.999Z,76.89
2022-10-01T04:43:04.047Z,76.73
2022-10-01T04:45:30.988Z,76.65
2022-10-01T04:47:58.396Z,76.65
2022-10-01T04:50:26.911Z,76.56
2022-10-01T04:52:53.913Z,76.81
2022-10-01T04:55:21.417Z,76.76
2022-10-01T04:57:48.378Z,76.75
2022-10-01T05:00:17.974Z,76.49
2022-10-01T05:02:45.778Z,76.34
2022-10-01T05:05:12.858Z,76.28
2022-10-01T05:07:39.989Z,75.78
2022-10-01T05:10:09.213Z,75.74
2022-10-01T05:12:35.857Z,75.92
2022-10-01T05:15:03.274Z,75.54
2022-10-01T05:17:34.072Z,75.07
2022-10-01T05:20:01.696Z,74.93
2022-10-01T05:22:28.831Z,73.96
2022-10-01T05:24:55.503Z,73.40
2022-10-01T05:27:22.111Z,72.55
2022-10-01T05:29:49.130Z,72.88
2022-10-01T05:32:16.537Z,72.77
2022-10-01T05:34:43.113Z,72.97
2022-10-01T05:37:10.979Z,72.40
2022-10-01T05:39:37.975Z,72.72
2022-10-01T05:42:06.537Z,72.43
2022-10-01T05:44:37.931Z,72.46
2022-10-01T05:47:07.458Z,72.12
2022-10-01T05:49:34.156Z,72.47
2022-10-01T05:52:01.180Z,72.67
2022-10-01T05:54:29.658Z,72.25
2022-10-01T05:56:59.289Z,71.86
2022-10-01T05:59:31.025Z,71.93
2022-10-01T06:01:58.502Z,71.85
2022-10-01T06:04:25.269Z,71.84
2022-10-01T06:06:53.250Z,71.90
2022-10-01T06:09:20.042Z,71.78
2022-10-01T06:11:48.985Z,71.97
2022-10-01T06:14:16.251Z,72.14
2022-10-01T06:16:43.059Z,73.15
2022-10-01T06:19:09.874Z,73.98
2022-10-01T06:21:36.947Z,74.87
2022-10-01T06:24:03.971Z,75.63
2022-10-01T06:26:31.287Z,76.29
2022-10-01T06:28:57.928Z,76.67
2022-10-01T06:31:25.218Z,77.57
2022-10-01T06:33:51.940Z,77.93
2022-10-01T06:36:18.570Z,78.09
2022-10-01T06:38:48.435Z,78.49
2022-10-01T06:41:15.053Z,78.88
2022-10-01T06:43:41.701Z,79.19
2022-10-01T06:46:08.397Z,79.62
2022-10-01T06:48:36.724Z,79.51
2022-10-01T06:51:04.092Z,79.67
2022-10-01T06:53:31.954Z,79.73
2022-10-01T06:56:04.483Z,79.40
2022-10-01T06:58:31.138Z,79.59
2022-10-01T07:01:02.045Z,79.64
2022-10-01T07:03:29.161Z,79.57
2022-10-01T07:06:01.256Z,79.91
2022-10-01T07:08:27.841Z,80.17
2022-10-01T07:10:59.582Z,80.21
2022-10-01T07:13:26.177Z,80.30
2022-10-01T07:15:52.778Z,80.75
2022-10-01T07:18:19.378Z,80.67
2022-10-01T07:20:46.103Z,80.87
2022-10-01T07:23:14.362Z,81.27
2022-10-01T07:25:41.916Z,81.29
2022-10-01T07:28:16.610Z,81.54
2022-10-01T07:30:47.498Z,81.54
2022-10-01T07:33:20.932Z,81.45
2022-10-01T07:35:48.040Z,81.77
2022-10-01T07:38:14.806Z,81.75
2022-10-01T07:40:42.050Z,82.29
2022-10-01T07:43:08.968Z,82.15
2022-10-01T07:45:35.586Z,82.13
2022-10-01T07:48:03.370Z,82.31
2022-10-01T07:50:30.647Z,82.19
2022-10-01T07:52:58.722Z,82.57
2022-10-01T07:55:27.516Z,82.55
2022-10-01T07:57:55.903Z,82.84
2022-10-01T08:00:25.766Z,82.89
2022-10-01T08:02:54.380Z,82.97
2022-10-01T08:05:23.454Z,82.80
2022-10-01T08:07:50.656Z,82.95
2022-10-01T08:10:19.237Z,83.22
2022-10-01T08:12:46.292Z,83.31
2022-10-01T08:15:15.564Z,83.54
2022-10-01T08:17:42.667Z,83.57
2022-10-01T08:20:11.262Z,83.52
2022-10-01T08:22:41.865Z,83.16
2022-10-01T08:25:09.878Z,83.37
2022-10-01T08:27:36.917Z,83.28
2022-10-01T08:30:04.217Z,82.94
2022-10-01T08:32:31.283Z,83.34
2022-10-01T08:35:00.013Z,83.14
2022-10-01T08:37:27.920Z,83.24
2022-10-01T08:39:55.334Z,83.07
2022-10-01T08:42:39.448Z,83.27
2022-10-01T08:45:11.780Z,83.50
2022-10-01T08:47:45.397Z,83.70
2022-10-01T08:50:31.677Z,83.29
2022-10-01T08:53:02.549Z,83.14
2022-10-01T08:55:36.319Z,83.04
2022-10-01T08:58:08.987Z,83.37
2022-10-01T09:00:36.339Z,83.30
2022-10-01T09:03:06.557Z,83.45
2022-10-01T09:05:52.334Z,83.39
2022-10-01T09:08:57.785Z,83.27
2022-10-01T09:11:35.393Z,83.44
2022-10-01T09:14:25.032Z,83.16
2022-10-01T09:16:51.694Z,83.35
2022-10-01T09:19:34.723Z,83.53
2022-10-01T09:22:10.211Z,83.76
2022-10-01T09:24:43.640Z,83.64
2022-10-01T09:27:18.324Z,83.53
2022-10-01T09:30:04.126Z,83.40
2022-10-01T09:32:34.386Z,83.61
2022-10-01T09:35:05.944Z,83.85
2022-10-01T09:37:43.474Z,83.27
2022-10-01T09:40:36.154Z,83.23
2022-10-01T09:43:04.257Z,83.38
2022-10-01T09:45:31.360Z,83.46
2022-10-01T09:48:05.276Z,83.77
2022-10-01T09:50:39.939Z,83.46
2022-10-01T09:53:12.947Z,83.54
2022-10-01T09:55:41.774Z,83.50
2022-10-01T09:58:19.203Z,83.48
2022-10-01T10:00:46.071Z,83.11
2022-10-01T10:03:27.613Z,83.28
2022-10-01T10:05:55.117Z,83.11
2022-10-01T10:08:28.018Z,82.92
2022-10-01T10:10:58.923Z,82.68
2022-10-01T10:13:32.078Z,82.93
2022-10-01T10:16:00.081Z,82.66
2022-10-01T10:18:34.623Z,83.04
2022-10-01T10:21:15.140Z,83.04
2022-10-01T10:23:57.097Z,83.47
2022-10-01T10:26:32.439Z,83.69
2022-10-01T10:29:02.256Z,83.91
2022-10-01T10:31:38.025Z,83.96
2022-10-01T10:34:31.960Z,84.22
2022-10-01T10:37:00.632Z,84.36
2022-10-01T10:39:32.907Z,84.44
2022-10-01T10:42:00.274Z,84.73
2022-10-01T10:44:39.749Z,84.82
2022-10-01T10:47:10.599Z,85.01
2022-10-01T10:50:04.554Z,84.88
2022-10-01T10:52:36.479Z,84.35
2022-10-01T10:55:31.160Z,84.00
2022-10-01T10:58:34.719Z,83.82
2022-10-01T11:01:06.226Z,83.74
2022-10-01T11:03:33.494Z,83.68
2022-10-01T11:06:09.902Z,83.68
2022-10-01T11:08:36.678Z,83.97
2022-10-01T11:11:21.679Z,84.09
2022-10-01T11:13:59.241Z,84.03
2022-10-01T11:16:47.575Z,84.25
2022-10-01T11:19:37.767Z,83.62
2022-10-01T11:22:26.198Z,83.56
2022-10-01T11:25:01.204Z,83.28
2022-10-01T11:28:13.018Z,82.86
2022-10-01T11:31:19.456Z,82.52
2022-10-01T11:34:00.527Z,83.00
2022-10-01T11:36:28.666Z,82.76
2022-10-01T11:38:59.174Z,83.08
2022-10-01T11:41:47.311Z,82.80
2022-10-01T11:44:29.633Z,83.06
2022-10-01T11:47:01.932Z,82.83
2022-10-01T11:49:45.489Z,83.12
2022-10-01T11:52:59.623Z,82.91
2022-10-01T11:56:00.391Z,82.77
2022-10-01T11:59:02.531Z,82.51
2022-10-01T12:01:38.269Z,82.75
2022-10-01T12:04:50.767Z,82.14
2022-10-01T12:07:30.288Z,82.75
2022-10-01T12:10:18.277Z,82.89
2022-10-01T12:12:54.407Z,82.68
2022-10-01T12:15:30.059Z,82.94
2022-10-01T12:18:55.263Z,82.46
2022-10-01T12:21:38.540Z,81.83
2022-10-01T12:24:12.164Z,81.37
2022-10-01T12:27:23.911Z,81.20
2022-10-01T12:30:29.485Z,80.05
2022-10-01T12:33:28.083Z,79.62
2022-10-01T12:36:23.315Z,77.39
2022-10-01T12:39:00.259Z,77.73
2022-10-01T12:41:52.516Z,77.49
2022-10-01T12:44:21.469Z,78.36
2022-10-01T12:47:06.647Z,77.97
2022-10-01T12:49:37.711Z,78.29
2022-10-01T12:52:11.685Z,77.46
2022-10-01T12:54:41.815Z,79.60
2022-10-01T12:57:17.534Z,78.12
2022-10-01T12:59:59.320Z,78.58
2022-10-01T13:02:45.255Z,77.28
2022-10-01T13:05:17.566Z,77.25
2022-10-01T13:07:59.187Z,76.51
2022-10-01T13:11:21.052Z,77.17
2022-10-01T13:13:51.654Z,76.22
2022-10-01T13:16:30.507Z,76.62
2022-10-01T13:19:18.048Z,75.26
2022-10-01T13:22:07.911Z,75.55
2022-10-01T13:25:00.722Z,76.19
2022-10-01T13:27:43.903Z,77.27
2022-10-01T13:30:23.098Z,77.57
2022-10-01T13:32:58.569Z,77.24
2022-10-01T13:35:42.331Z,77.50
2022-10-01T13:38:31.303Z,76.30
2022-10-01T13:41:00.117Z,75.10
2022-10-01T13:43:32.393Z,75.08
2022-10-01T13:46:09.058Z,75.38
2022-10-01T13:48:46.043Z,74.71
2022-10-01T13:51:13.571Z,74.98
2022-10-01T13:53:43.352Z,73.95
2022-10-01T13:56:14.450Z,74.86
2022-10-01T13:58:42.882Z,73.06
2022-10-01T14:01:24.727Z,72.93
2022-10-01T14:04:19.054Z,72.00
2022-10-01T14:06:54.072Z,72.22
2022-10-01T14:09:27.976Z,72.83
2022-10-01T14:12:26.025Z,72.64
2022-10-01T14:15:16.440Z,73.69
2022-10-01T14:17:50.390Z,74.41
2022-10-01T14:20:19.542Z,75.72
2022-10-01T14:23:11.566Z,74.97
2022-10-01T14:25:59.602Z,76.70
2022-10-01T14:28:35.431Z,73.80
2022-10-01T14:31:45.583Z,75.52
2022-10-01T14:34:21.314Z,72.81
2022-10-01T14:36:50.099Z,74.25
2022-10-01T14:39:18.352Z,74.59
2022-10-01T14:41:47.177Z,73.55
2022-10-01T14:44:43.305Z,73.73
2022-10-01T14:47:27.949Z,73.72
2022-10-01T14:49:55.060Z,72.96
2022-10-01T14:52:27.857Z,73.63
2022-10-01T14:55:04.624Z,72.74
2022-10-01T14:57:36.598Z,72.92
2022-10-01T15:00:12.777Z,71.72
2022-10-01T15:02:50.819Z,71.71
2022-10-01T15:05:22.607Z,72.42
2022-10-01T15:07:49.327Z,71.62
2022-10-01T15:10:20.574Z,72.42
2022-10-01T15:12:50.449Z,71.22
2022-10-01T15:15:40.644Z,72.74
2022-10-01T15:18:07.789Z,74.25
2022-10-01T15:20:34.984Z,74.49
2022-10-01T15:23:05.209Z,75.03
2022-10-01T15:25:32.403Z,75.23
2022-10-01T15:27:59.256Z,75.20
2022-10-01T15:30:27.908Z,72.09
2022-10-01T15:32:54.720Z,74.69
2022-10-01T15:35:22.814Z,74.17
2022-10-01T15:37:50.602Z,73.53
2022-10-01T15:40:29.275Z,75.65
2022-10-01T15:43:12.386Z,75.24
2022-10-01T15:45:39.059Z,76.38
2022-10-01T15:48:30.030Z,75.93
2022-10-01T15:51:04.087Z,75.72
2022-10-01T15:53:42.902Z,74.09
2022-10-01T15:56:20.589Z,74.98
2022-10-01T15:59:01.001Z,75.94
2022-10-01T16:01:32.443Z,75.94
2022-10-01T16:04:07.749Z,76.55
2022-10-01T16:06:52.457Z,76.45
2022-10-01T16:09:31.234Z,77.35
2022-10-01T16:12:26.134Z,78.03
2022-10-01T16:15:35.520Z,77.70
2022-10-01T16:18:29.476Z,76.94
2022-10-01T16:21:07.962Z,77.29
2022-10-01T16:23:53.547Z,77.36
2022-10-01T16:26:31.577Z,76.87
2022-10-01T16:29:07.148Z,77.63
2022-10-01T16:32:04.811Z,77.54
2022-10-01T16:34:48.437Z,77.37
2022-10-01T16:37:38.231Z,77.54
2022-10-01T16:40:36.639Z,77.86
2022-10-01T16:43:22.673Z,77.72
2022-10-01T16:46:01.838Z,78.52
2022-10-01T16:48:31.345Z,78.07
2022-10-01T16:51:07.200Z,78.22
2022-10-01T16:53:46.198Z,78.53
2022-10-01T16:56:26.931Z,78.97
2022-10-01T16:59:06.156Z,79.04
2022-10-01T17:01:42.505Z,79.42
2022-10-01T17:04:14.071Z,79.67
2022-10-01T17:06:53.971Z,79.69
2022-10-01T17:09:44.547Z,79.73
2022-10-01T17:12:27.179Z,80.04
2022-10-01T17:15:14.664Z,79.63
2022-10-01T17:18:09.259Z,80.38
2022-10-01T17:20:42.476Z,80.12
2022-10-01T17:23:25.248Z,80.26
2022-10-01T17:26:06.930Z,80.14
2022-10-01T17:28:53.928Z,80.37
2022-10-01T17:31:33.307Z,81.02
2022-10-01T17:34:09.802Z,80.39
2022-10-01T17:36:41.649Z,80.45
2022-10-01T17:39:16.697Z,80.43
2022-10-01T17:41:49.876Z,79.91
2022-10-01T17:44:24.617Z,80.41
2022-10-01T17:47:06.808Z,80.99
2022-10-01T17:49:38.209Z,80.93
2022-10-01T17:52:18.612Z,81.31
2022-10-01T17:54:49.297Z,81.49
2022-10-01T17:57:22.604Z,81.27
2022-10-01T17:59:52.107Z,81.30
2022-10-01T18:02:44.181Z,81.63
2022-10-01T18:05:19.344Z,82.13
2022-10-01T18:07:50.269Z,81.78
2022-10-01T18:10:25.263Z,81.22
2022-10-01T18:12:57.797Z,80.91
2022-10-01T18:15:30.565Z,81.23
2022-10-01T18:19:30.970Z,81.92
2022-10-01T18:21:08.440Z,81.64
2022-10-01T18:23:39.377Z,81.71
2022-10-01T18:26:20.031Z,81.64
2022-10-01T18:29:00.403Z,81.90
2022-10-01T18:31:39.768Z,81.75
2022-10-01T18:34:34.538Z,81.68
2022-10-01T18:37:46.899Z,81.28
2022-10-01T18:40:27.019Z,81.28
2022-10-01T18:43:13.010Z,81.88
2022-10-01T18:46:03.646Z,81.18
2022-10-01T18:49:27.485Z,82.17
2022-10-01T18:52:41.845Z,81.94
2022-10-01T18:55:44.789Z,81.41
2022-10-01T18:58:51.142Z,81.84
2022-10-01T19:01:48.951Z,81.95
2022-10-01T19:04:59.135Z,82.39
2022-10-01T19:07:58.644Z,83.28
2022-10-01T19:11:07.370Z,83.27
2022-10-01T19:14:31.816Z,82.99
2022-10-01T19:17:17.759Z,83.64
2022-10-01T19:20:19.368Z,83.77
2022-10-01T19:23:07.868Z,83.25
2022-10-01T19:25:55.347Z,83.38
2022-10-01T19:28:45.874Z,83.15
2022-10-01T19:31:34.984Z,83.12
2022-10-01T19:34:11.200Z,82.59
2022-10-01T19:36:48.565Z,82.95
2022-10-01T19:39:31.356Z,83.14
2022-10-01T19:42:36.784Z,83.59
2022-10-01T19:45:31.345Z,83.09
2022-10-01T19:48:16.571Z,83.27
2022-10-01T19:50:48.765Z,83.15
2022-10-01T19:53:31.999Z,82.85
2022-10-01T19:56:05.413Z,82.71
2022-10-01T19:58:52.531Z,82.54
2022-10-01T20:01:34.775Z,82.33
2022-10-01T20:04:20.907Z,82.29
2022-10-01T20:07:01.578Z,82.59
2022-10-01T20:10:16.109Z,82.19
2022-10-01T20:13:05.105Z,82.33
2022-10-01T20:16:04.861Z,82.11
2022-10-01T20:18:39.862Z,82.22
2022-10-01T20:21:26.950Z,81.97
2022-10-01T20:24:06.510Z,82.60
2022-10-01T20:26:42.794Z,82.47
2022-10-01T20:29:30.731Z,82.24
2022-10-01T20:32:45.906Z,82.41
2022-10-01T20:35:45.896Z,82.42
2022-10-01T20:38:35.589Z,82.34
2022-10-01T20:41:16.478Z,82.28
2022-10-01T20:43:54.635Z,82.48
2022-10-01T20:46:39.009Z,82.59
2022-10-01T20:49:21.143Z,82.67
2022-10-01T20:52:13.183Z,82.52
2022-10-01T20:54:45.125Z,82.49
2022-10-01T20:57:42.586Z,82.55
2022-10-01T21:00:34.314Z,82.64
2022-10-01T21:03:42.648Z,82.63
2022-10-01T21:06:30.681Z,82.60
2022-10-01T21:09:15.348Z,82.56
2022-10-01T21:12:02.266Z,82.66
2022-10-01T21:14:39.092Z,82.56
2022-10-01T21:17:32.816Z,82.70
2022-10-01T21:20:37.759Z,82.87
2022-10-01T21:23:17.654Z,82.92
2022-10-01T21:26:19.821Z,83.04
2022-10-01T21:29:14.918Z,82.93
2022-10-01T21:31:47.187Z,83.02
2022-10-01T21:34:36.911Z,82.92
2022-10-01T21:37:29.151Z,82.83
2022-10-01T21:40:28.224Z,83.13
2022-10-01T21:43:10.249Z,82.99
2022-10-01T21:46:34.625Z,82.82
2022-10-01T21:49:24.536Z,82.91
2022-10-01T21:52:33.049Z,82.89
2022-10-01T21:55:20.397Z,83.00
2022-10-01T21:58:27.194Z,82.94
2022-10-01T22:01:27.733Z,83.07
2022-10-01T22:04:14.546Z,82.92
2022-10-01T22:07:11.964Z,83.07
2022-10-01T22:09:51.948Z,83.01
2022-10-01T22:12:28.150Z,83.14
2022-10-01T22:15:01.668Z,83.16
2022-10-01T22:17:42.540Z,83.40
2022-10-01T22:20:25.155Z,83.46
2022-10-01T22:22:57.225Z,83.44
2022-10-01T22:25:35.534Z,83.42
2022-10-01T22:28:13.731Z,83.39
2022-10-01T22:30:44.990Z,83.39
2022-10-01T22:33:34.365Z,83.25
2022-10-01T22:36:09.078Z,83.30
2022-10-01T22:38:58.036Z,83.42
2022-10-01T22:41:28.824Z,83.58
2022-10-01T22:44:00.239Z,83.33
2022-10-01T22:47:01.283Z,83.57
2022-10-01T22:50:13.170Z,83.42
2022-10-01T22:53:00.399Z,83.37
2022-10-01T22:56:15.313Z,83.42
2022-10-01T22:59:17.331Z,83.36
2022-10-01T23:02:43.156Z,83.38
2022-10-01T23:05:40.038Z,83.15
2022-10-01T23:08:30.111Z,83.36
2022-10-01T23:11:32.017Z,83.23
2022-10-01T23:14:20.586Z,82.96
2022-10-01T23:17:14.890Z,82.97
2022-10-01T23:20:06.510Z,83.20
2022-10-01T23:22:45.615Z,83.43
2022-10-01T23:25:40.588Z,83.70
2022-10-01T23:28:32.723Z,83.93
2022-10-01T23:31:37.985Z,83.84
2022-10-01T23:34:29.137Z,84.02
2022-10-01T23:37:17.071Z,84.20
2022-10-01T23:39:48.014Z,84.03
2022-10-01T23:42:33.381Z,84.06
2022-10-01T23:45:15.411Z,84.22
2022-10-01T23:47:48.363Z,84.55
2022-10-01T23:50:22.768Z,84.45
2022-10-01T23:53:00.532Z,84.53
2022-10-01T23:56:15.986Z,84.51
2022-10-01T23:59:13.905Z,84.58
